Time;durP1;ratioP1;P1;durP2;ratioP2;P2;SDS_P1;SDS_P2;PMS_P1;PMS_P2;Temp;Humidity;BMP_temperature;BMP_pressure;BME280_temperature;BME280_humidity;BME280_pressure;Samples;Min_cycle;Max_cycle;Signal;HPM_P1;HPM_P2
2021/03/22 00:01:01;;;;;;;31.37;16.13;;;;;;;;;;5070279;28;20941;-89
2021/03/22 00:03:27;;;;;;;34.67;17.53;;;;;;;;;;5051965;28;20175;-89
2021/03/22 00:05:52;;;;;;;42.93;24.57;;;;;;;;;;5049367;28;20519;-89
2021/03/22 00:08:18;;;;;;;30.77;19.67;;;;;;;;;;5048771;28;20195;-88
2021/03/22 00:10:45;;;;;;;27.00;15.50;;;;;;;;;;5050301;28;20172;-88
2021/03/22 00:13:11;;;;;;;48.50;21.40;;;;;;;;;;5087142;28;20842;-87
2021/03/22 00:15:38;;;;;;;46.23;19.67;;;;;;;;;;5091265;28;20174;-89
2021/03/22 00:18:04;;;;;;;29.80;15.13;;;;;;;;;;5090906;28;20182;-88
2021/03/22 00:20:30;;;;;;;33.70;16.97;;;;;;;;;;5091069;28;20206;-88
2021/03/22 00:22:56;;;;;;;27.30;15.30;;;;;;;;;;5092064;28;20202;-88
2021/03/22 00:25:21;;;;;;;28.67;15.57;;;;;;;;;;5092066;28;20179;-88
2021/03/22 00:27:46;;;;;;;25.10;13.33;;;;;;;;;;5092101;28;20672;-89
2021/03/22 00:30:15;;;;;;;23.67;12.90;;;;;;;;;;5091406;28;20719;-88
2021/03/22 00:32:41;;;;;;;26.53;13.57;;;;;;;;;;5090587;28;20704;-89
2021/03/22 00:35:06;;;;;;;25.97;13.97;;;;;;;;;;5090509;28;20266;-89
2021/03/22 00:37:32;;;;;;;27.53;17.50;;;;;;;;;;5092069;28;20170;-88
2021/03/22 00:39:57;;;;;;;21.57;13.40;;;;;;;;;;5090095;28;20221;-88
2021/03/22 00:42:24;;;;;;;16.67;11.53;;;;;;;;;;5091846;28;20242;-88
2021/03/22 00:44:49;;;;;;;19.43;11.63;;;;;;;;;;5092123;28;20167;-90
2021/03/22 00:47:15;;;;;;;28.83;12.03;;;;;;;;;;5095163;28;20177;-87
2021/03/22 00:49:40;;;;;;;28.63;13.90;;;;;;;;;;5093792;28;20195;-88
2021/03/22 00:52:10;;;;;;;23.00;12.00;;;;;;;;;;5095523;28;20609;-88
2021/03/22 00:54:35;;;;;;;23.20;12.30;;;;;;;;;;5095495;28;20431;-87
2021/03/22 00:57:01;;;;;;;26.43;14.50;;;;;;;;;;5095424;28;20617;-87
2021/03/22 00:59:26;;;;;;;28.73;16.50;;;;;;;;;;5095308;28;20259;-87
2021/03/22 01:01:52;;;;;;;38.50;21.73;;;;;;;;;;5095006;28;20262;-87
2021/03/22 01:04:17;;;;;;;18.50;12.87;;;;;;;;;;5095693;28;20166;-87
2021/03/22 01:06:42;;;;;;;17.13;11.00;;;;;;;;;;5094915;28;20280;-88
2021/03/22 01:09:08;;;;;;;23.97;12.40;;;;;;;;;;5095458;28;20308;-87
2021/03/22 01:11:33;;;;;;;37.87;16.00;;;;;;;;;;5089079;28;20232;-86
2021/03/22 01:13:59;;;;;;;29.73;12.93;;;;;;;;;;5073418;28;20175;-87
2021/03/22 01:16:25;;;;;;;24.87;12.57;;;;;;;;;;5074786;28;20237;-87
2021/03/22 01:18:51;;;;;;;26.57;13.27;;;;;;;;;;5073259;28;20207;-87
2021/03/22 01:21:19;;;;;;;22.93;11.83;;;;;;;;;;5074819;28;20258;-86
2021/03/22 01:23:45;;;;;;;24.90;14.97;;;;;;;;;;5074459;28;20183;-87
2021/03/22 01:26:11;;;;;;;23.83;15.37;;;;;;;;;;5074816;28;20186;-87
2021/03/22 01:28:37;;;;;;;17.97;11.50;;;;;;;;;;5074543;28;20179;-87
2021/03/22 01:31:03;;;;;;;23.33;12.10;;;;;;;;;;5074812;28;20213;-87
2021/03/22 01:33:34;;;;;;;17.63;11.07;;;;;;;;;;5074836;28;20636;-89
2021/03/22 01:36:00;;;;;;;18.73;10.53;;;;;;;;;;5074906;28;20573;-87
2021/03/22 01:38:26;;;;;;;23.83;10.90;;;;;;;;;;5074355;28;20558;-87
2021/03/22 01:40:51;;;;;;;25.83;11.50;;;;;;;;;;5074415;28;20183;-87
2021/03/22 01:43:19;;;;;;;17.03;9.67;;;;;;;;;;5074365;28;20210;-86
2021/03/22 01:45:45;;;;;;;20.80;10.63;;;;;;;;;;5074247;28;20606;-87
2021/03/22 01:48:10;;;;;;;23.13;10.83;;;;;;;;;;5074151;28;20174;-87
2021/03/22 01:50:36;;;;;;;20.23;9.87;;;;;;;;;;5074188;28;20258;-87
2021/03/22 01:53:01;;;;;;;22.20;11.83;;;;;;;;;;5073881;28;20503;-87
2021/03/22 01:55:27;;;;;;;16.47;10.33;;;;;;;;;;5074084;28;20167;-87
2021/03/22 01:57:53;;;;;;;17.10;9.87;;;;;;;;;;5073596;28;20171;-87
2021/03/22 02:00:33;;;;;;;12.33;8.13;;;;;;;;;;5073991;28;20199;-87
2021/03/22 02:03:01;;;;;;;14.43;8.37;;;;;;;;;;5073915;28;20220;-87
2021/03/22 02:05:27;;;;;;;14.20;8.23;;;;;;;;;;5073769;28;20179;-88
2021/03/22 02:08:01;;;;;;;14.20;8.43;;;;;;;;;;5073628;28;20171;-87
2021/03/22 02:10:27;;;;;;;17.73;8.20;;;;;;;;;;5073747;28;20926;-87
2021/03/22 02:12:52;;;;;;;20.07;9.83;;;;;;;;;;5073621;28;20258;-87
2021/03/22 02:15:18;;;;;;;18.83;9.53;;;;;;;;;;5073185;28;20183;-87
2021/03/22 02:17:43;;;;;;;16.70;9.40;;;;;;;;;;5073467;28;20536;-88
2021/03/22 02:20:14;;;;;;;15.60;9.53;;;;;;;;;;5073229;28;20207;-88
2021/03/22 02:22:39;;;;;;;14.03;9.07;;;;;;;;;;5072304;28;20218;-87
2021/03/22 02:25:11;;;;;;;14.40;10.00;;;;;;;;;;5073800;28;20752;-88
2021/03/22 02:27:39;;;;;;;13.27;8.87;;;;;;;;;;5073240;28;20274;-87
2021/03/22 02:30:28;;;;;;;17.57;8.33;;;;;;;;;;5073056;28;20630;-87
2021/03/22 02:33:02;;;;;;;16.57;8.73;;;;;;;;;;5064789;28;20184;-88
2021/03/22 02:35:33;;;;;;;20.50;11.47;;;;;;;;;;5073078;28;20576;-88
2021/03/22 02:38:08;;;;;;;19.50;11.30;;;;;;;;;;5073275;28;20250;-88
2021/03/22 02:40:37;;;;;;;21.40;10.50;;;;;;;;;;5073228;28;20167;-88
2021/03/22 02:43:04;;;;;;;19.30;11.33;;;;;;;;;;5073355;28;20175;-87
2021/03/22 02:45:37;;;;;;;17.10;9.87;;;;;;;;;;5073166;28;20173;-88
2021/03/22 02:48:03;;;;;;;16.07;9.70;;;;;;;;;;5072865;28;20168;-88
2021/03/22 02:50:33;;;;;;;16.50;9.77;;;;;;;;;;5072929;28;20197;-87
2021/03/22 02:52:58;;;;;;;15.43;9.07;;;;;;;;;;5072731;28;20561;-87
2021/03/22 02:55:42;;;;;;;18.93;8.50;;;;;;;;;;5072995;28;20217;-87
2021/03/22 02:58:12;;;;;;;17.77;8.70;;;;;;;;;;5072365;28;20280;-87
2021/03/22 03:00:43;;;;;;;13.20;8.03;;;;;;;;;;5072578;28;20816;-88
2021/03/22 03:03:13;;;;;;;14.90;8.63;;;;;;;;;;5072836;28;20246;-88
2021/03/22 03:05:38;;;;;;;14.17;7.67;;;;;;;;;;5072854;28;20175;-87
2021/03/22 03:08:07;;;;;;;16.17;7.90;;;;;;;;;;5071998;28;20528;-88
2021/03/22 03:10:33;;;;;;;13.43;8.43;;;;;;;;;;5072392;28;20175;-88
2021/03/22 03:12:58;;;;;;;14.40;8.53;;;;;;;;;;5072348;28;20640;-88
2021/03/22 03:15:24;;;;;;;13.97;8.70;;;;;;;;;;5072300;28;20668;-89
2021/03/22 03:17:49;;;;;;;11.43;7.40;;;;;;;;;;5071157;28;20566;-89
2021/03/22 03:20:18;;;;;;;14.90;8.50;;;;;;;;;;5072100;28;20704;-88
2021/03/22 03:22:43;;;;;;;14.73;8.90;;;;;;;;;;5071188;28;20180;-87
2021/03/22 03:25:09;;;;;;;14.63;8.50;;;;;;;;;;5072603;28;20487;-88
2021/03/22 03:27:35;;;;;;;14.20;8.30;;;;;;;;;;5072352;28;20202;-88
2021/03/22 03:30:00;;;;;;;14.47;8.03;;;;;;;;;;5072446;28;20207;-88
2021/03/22 03:32:26;;;;;;;16.33;9.27;;;;;;;;;;5070981;28;20537;-87
2021/03/22 03:34:51;;;;;;;17.00;8.57;;;;;;;;;;5072345;28;20216;-87
2021/03/22 03:37:17;;;;;;;13.50;7.73;;;;;;;;;;5071961;28;20177;-87
2021/03/22 03:39:42;;;;;;;13.13;8.10;;;;;;;;;;5072292;28;20205;-87
2021/03/22 03:42:09;;;;;;;13.83;7.83;;;;;;;;;;5072297;28;21019;-87
2021/03/22 03:44:38;;;;;;;17.60;8.50;;;;;;;;;;5071956;28;20175;-88
2021/03/22 03:47:03;;;;;;;16.17;9.20;;;;;;;;;;5070955;28;20540;-87
2021/03/22 03:49:29;;;;;;;14.97;9.40;;;;;;;;;;5070735;28;20195;-88
2021/03/22 03:51:54;;;;;;;15.43;9.07;;;;;;;;;;5072439;28;20173;-87
2021/03/22 03:54:20;;;;;;;15.73;8.97;;;;;;;;;;5072383;28;20628;-87
2021/03/22 03:56:45;;;;;;;16.37;8.80;;;;;;;;;;5070906;28;20167;-88
2021/03/22 03:59:11;;;;;;;13.23;8.93;;;;;;;;;;5072033;28;20858;-88
2021/03/22 04:01:36;;;;;;;17.97;8.60;;;;;;;;;;5071931;28;20163;-88
2021/03/22 04:04:02;;;;;;;15.43;8.83;;;;;;;;;;5072028;28;20178;-87
2021/03/22 04:06:29;;;;;;;14.77;7.40;;;;;;;;;;5072048;28;20173;-88
2021/03/22 04:08:55;;;;;;;14.63;8.00;;;;;;;;;;5072020;28;20179;-88
2021/03/22 04:11:24;;;;;;;14.40;7.20;;;;;;;;;;5071998;28;20178;-87
2021/03/22 04:13:51;;;;;;;14.47;6.90;;;;;;;;;;5071842;28;20171;-87
2021/03/22 04:16:17;;;;;;;12.10;6.90;;;;;;;;;;5072362;28;20185;-88
2021/03/22 04:18:43;;;;;;;15.07;7.30;;;;;;;;;;5071947;28;20211;-87
2021/03/22 04:21:09;;;;;;;32.77;18.47;;;;;;;;;;5074606;28;20262;-88
2021/03/22 04:23:35;;;;;;;31.10;19.57;;;;;;;;;;5075692;28;20637;-88
2021/03/22 04:26:01;;;;;;;37.17;21.47;;;;;;;;;;5075840;28;20205;-88
2021/03/22 04:28:26;;;;;;;26.37;12.87;;;;;;;;;;5075855;28;20291;-88
2021/03/22 04:30:51;;;;;;;75.00;45.07;;;;;;;;;;5075810;28;20547;-87
2021/03/22 04:33:17;;;;;;;60.67;24.57;;;;;;;;;;5075808;28;20553;-88
2021/03/22 04:35:42;;;;;;;31.80;15.00;;;;;;;;;;5075749;28;20591;-89
2021/03/22 04:38:08;;;;;;;50.40;28.93;;;;;;;;;;5075419;28;20178;-88
2021/03/22 04:40:33;;;;;;;69.00;32.73;;;;;;;;;;5074186;28;20525;-89
2021/03/22 04:42:58;;;;;;;33.93;15.43;;;;;;;;;;5075614;28;20180;-88
2021/03/22 04:45:27;;;;;;;46.93;17.80;;;;;;;;;;5075403;28;20199;-88
2021/03/22 04:47:52;;;;;;;36.43;22.07;;;;;;;;;;5075103;28;20175;-88
2021/03/22 04:50:18;;;;;;;65.57;24.17;;;;;;;;;;5075020;28;20762;-89
2021/03/22 04:52:44;;;;;;;42.07;15.17;;;;;;;;;;5075041;28;20253;-89
2021/03/22 04:55:09;;;;;;;47.93;16.53;;;;;;;;;;5075260;28;20332;-89
2021/03/22 04:57:35;;;;;;;39.77;14.77;;;;;;;;;;5074037;28;20183;-87
2021/03/22 05:00:03;;;;;;;39.17;15.30;;;;;;;;;;5075418;28;20230;-88
2021/03/22 05:02:28;;;;;;;37.23;14.43;;;;;;;;;;5075134;28;20180;-89
2021/03/22 05:04:53;;;;;;;35.13;13.00;;;;;;;;;;5075177;28;20174;-87
2021/03/22 05:07:19;;;;;;;38.47;14.27;;;;;;;;;;5074990;28;20178;-88
2021/03/22 05:09:45;;;;;;;34.70;12.43;;;;;;;;;;5073607;28;20180;-88
2021/03/22 05:12:10;;;;;;;31.87;12.70;;;;;;;;;;5074961;28;20171;-88
2021/03/22 05:14:36;;;;;;;32.33;11.63;;;;;;;;;;5075212;28;20229;-86
2021/03/22 05:17:01;;;;;;;47.00;15.70;;;;;;;;;;5074581;28;20167;-87
2021/03/22 05:19:26;;;;;;;27.77;12.27;;;;;;;;;;5074431;28;20210;-86
2021/03/22 05:21:54;;;;;;;29.83;11.73;;;;;;;;;;5074735;28;20178;-87
2021/03/22 05:24:20;;;;;;;31.80;13.40;;;;;;;;;;5074445;28;20175;-87
2021/03/22 05:26:45;;;;;;;19.93;10.07;;;;;;;;;;5074427;28;20181;-87
2021/03/22 05:29:10;;;;;;;31.23;12.80;;;;;;;;;;5074428;28;20174;-87
2021/03/22 05:31:36;;;;;;;54.60;24.80;;;;;;;;;;5073880;28;20238;-88
2021/03/22 05:34:02;;;;;;;26.93;15.30;;;;;;;;;;5074596;28;20258;-87
2021/03/22 05:36:27;;;;;;;22.73;10.90;;;;;;;;;;5074714;28;20522;-88
2021/03/22 05:38:52;;;;;;;29.73;11.27;;;;;;;;;;5074176;28;20209;-89
2021/03/22 05:41:20;;;;;;;26.23;11.17;;;;;;;;;;5074604;28;20178;-89
2021/03/22 05:44:08;;;;;;;19.03;10.30;;;;;;;;;;5074321;28;20171;-88
2021/03/22 05:46:46;;;;;;;18.57;9.90;;;;;;;;;;5036190;28;20195;-87
2021/03/22 05:49:29;;;;;;;28.90;17.37;;;;;;;;;;5074243;28;20194;-87
2021/03/22 05:52:03;;;;;;;22.93;11.57;;;;;;;;;;5074530;28;20174;-88
2021/03/22 05:54:41;;;;;;;27.10;13.20;;;;;;;;;;5074332;28;20162;-89
2021/03/22 05:57:12;;;;;;;25.23;12.17;;;;;;;;;;5074462;28;20595;-88
2021/03/22 05:59:43;;;;;;;16.97;8.80;;;;;;;;;;5072464;28;20592;-89
2021/03/22 06:02:10;;;;;;;15.83;9.60;;;;;;;;;;5073960;28;20175;-87
2021/03/22 06:04:42;;;;;;;20.37;11.40;;;;;;;;;;5073697;28;20642;-88
2021/03/22 06:07:08;;;;;;;12.17;7.67;;;;;;;;;;5073879;28;20986;-88
2021/03/22 06:09:41;;;;;;;15.00;11.20;;;;;;;;;;5074106;28;20179;-87
2021/03/22 06:12:09;;;;;;;13.03;11.53;;;;;;;;;;5074201;28;20649;-88
2021/03/22 06:14:50;;;;;;;11.23;8.13;;;;;;;;;;5073582;28;20171;-87
2021/03/22 06:17:18;;;;;;;18.33;11.43;;;;;;;;;;5073799;28;20656;-87
2021/03/22 06:19:50;;;;;;;13.00;8.97;;;;;;;;;;5073289;28;20294;-87
2021/03/22 06:22:20;;;;;;;12.53;8.53;;;;;;;;;;5073300;28;20167;-87
2021/03/22 06:24:46;;;;;;;13.80;8.90;;;;;;;;;;5073225;28;20206;-87
2021/03/22 06:27:11;;;;;;;10.70;8.43;;;;;;;;;;5073287;28;20250;-88
2021/03/22 06:29:38;;;;;;;11.37;8.43;;;;;;;;;;5073184;28;20197;-87
2021/03/22 06:32:10;;;;;;;8.50;7.40;;;;;;;;;;5073453;28;20258;-87
2021/03/22 06:34:56;;;;;;;9.52;7.43;;;;;;;;;;5073062;28;20179;-87
2021/03/22 06:37:29;;;;;;;11.13;9.32;;;;;;;;;;5073242;28;20951;-88
2021/03/22 06:40:03;;;;;;;8.25;6.72;;;;;;;;;;5073111;28;20199;-87
2021/03/22 06:42:29;;;;;;;9.07;7.70;;;;;;;;;;5072685;28;20175;-88
2021/03/22 06:44:54;;;;;;;7.97;7.13;;;;;;;;;;5073189;28;20174;-89
2021/03/22 06:47:32;;;;;;;7.63;6.77;;;;;;;;;;5073104;28;20167;-88
2021/03/22 06:50:16;;;;;;;10.67;8.53;;;;;;;;;;5071557;28;20218;-89
2021/03/22 06:52:43;;;;;;;11.70;8.80;;;;;;;;;;5072882;28;20167;-87
2021/03/22 06:55:27;;;;;;;15.07;9.80;;;;;;;;;;5072891;28;20167;-88
2021/03/22 06:57:52;;;;;;;10.13;6.93;;;;;;;;;;5072609;28;20171;-88
2021/03/22 07:00:19;;;;;;;12.53;8.00;;;;;;;;;;5071348;28;20229;-87
2021/03/22 07:02:58;;;;;;;9.97;7.10;;;;;;;;;;5071326;28;20183;-88
2021/03/22 07:05:29;;;;;;;9.47;6.73;;;;;;;;;;5072411;28;20752;-88
2021/03/22 07:08:08;;;;;;;14.97;8.10;;;;;;;;;;5072684;28;20178;-88
2021/03/22 07:10:39;;;;;;;11.77;8.47;;;;;;;;;;5072554;28;20179;-88
2021/03/22 07:13:22;;;;;;;13.73;8.53;;;;;;;;;;5072232;28;20233;-87
2021/03/22 07:15:49;;;;;;;13.87;8.17;;;;;;;;;;5072098;28;20159;-87
2021/03/22 07:18:21;;;;;;;14.40;8.20;;;;;;;;;;5072522;28;20618;-87
2021/03/22 07:21:07;;;;;;;18.43;9.97;;;;;;;;;;5072010;28;20171;-88
2021/03/22 07:23:41;;;;;;;13.73;8.07;;;;;;;;;;5071793;28;20960;-87
2021/03/22 07:26:09;;;;;;;32.00;21.73;;;;;;;;;;5072226;28;20171;-88
2021/03/22 07:29:00;;;;;;;74.27;56.93;;;;;;;;;;5072468;28;20179;-89
2021/03/22 07:31:34;;;;;;;53.60;40.43;;;;;;;;;;5072290;28;20678;-87
2021/03/22 07:34:18;;;;;;;71.40;53.57;;;;;;;;;;5071879;28;20167;-87
2021/03/22 07:37:05;;;;;;;75.07;63.30;;;;;;;;;;5071721;28;20178;-87
2021/03/22 07:39:36;;;;;;;28.03;21.30;;;;;;;;;;5072178;28;20198;-87
2021/03/22 07:42:11;;;;;;;48.07;26.53;;;;;;;;;;5072115;28;20625;-87
2021/03/22 07:44:44;;;;;;;39.33;26.53;;;;;;;;;;5072034;28;20327;-87
2021/03/22 07:47:28;;;;;;;28.47;18.07;;;;;;;;;;5071873;28;20166;-86
2021/03/22 07:50:20;;;;;;;65.57;39.83;;;;;;;;;;5072098;28;20190;-87
2021/03/22 07:52:49;;;;;;;44.20;29.87;;;;;;;;;;5072156;28;20164;-87
2021/03/22 07:55:37;;;;;;;34.83;22.30;;;;;;;;;;5071502;28;20254;-87
2021/03/22 07:58:17;;;;;;;55.43;33.70;;;;;;;;;;5072292;28;20270;-88
2021/03/22 08:00:56;;;;;;;65.13;47.83;;;;;;;;;;5073888;28;20198;-88
2021/03/22 08:03:34;;;;;;;42.27;33.67;;;;;;;;;;5073619;28;20640;-89
2021/03/22 08:06:18;;;;;;;46.93;33.00;;;;;;;;;;5074352;28;20167;-89
2021/03/22 08:08:53;;;;;;;38.40;26.80;;;;;;;;;;5072214;28;20178;-89
2021/03/22 08:11:24;;;;;;;29.67;21.97;;;;;;;;;;5073703;28;20228;-91
2021/03/22 08:13:53;;;;;;;24.03;17.63;;;;;;;;;;5072769;28;20175;-90
2021/03/22 08:16:25;;;;;;;24.90;17.87;;;;;;;;;;5073468;28;20167;-90
2021/03/22 08:18:53;;;;;;;21.30;12.70;;;;;;;;;;5073988;28;20514;-91
2021/03/22 08:21:25;;;;;;;20.07;13.77;;;;;;;;;;5072930;28;20171;-90
2021/03/22 08:24:04;;;;;;;20.33;13.70;;;;;;;;;;5073454;28;20171;-89
2021/03/22 08:26:36;;;;;;;23.73;14.17;;;;;;;;;;5073749;28;20155;-90
2021/03/22 08:29:04;;;;;;;16.20;9.43;;;;;;;;;;5073461;28;20172;-91
2021/03/22 08:31:32;;;;;;;17.73;10.57;;;;;;;;;;5063340;28;20519;-90
2021/03/22 08:34:04;;;;;;;13.93;8.90;;;;;;;;;;5068324;28;20180;-91
2021/03/22 08:36:38;;;;;;;22.93;16.03;;;;;;;;;;5052985;28;20498;-91
2021/03/22 08:39:15;;;;;;;18.70;15.43;;;;;;;;;;5053079;28;20298;-90
2021/03/22 08:41:46;;;;;;;30.30;15.90;;;;;;;;;;5052046;28;20278;-90
2021/03/22 08:44:26;;;;;;;10.80;6.93;;;;;;;;;;5061310;28;20172;-90
2021/03/22 08:46:59;;;;;;;13.93;9.27;;;;;;;;;;5051791;28;20279;-90
2021/03/22 08:49:31;;;;;;;14.07;9.10;;;;;;;;;;5051724;28;20191;-90
2021/03/22 08:51:58;;;;;;;12.17;7.43;;;;;;;;;;5053394;28;20521;-89
2021/03/22 08:54:29;;;;;;;18.60;11.10;;;;;;;;;;5051774;28;20180;-90
2021/03/22 08:57:10;;;;;;;11.33;8.80;;;;;;;;;;5051893;28;20176;-89
2021/03/22 08:59:36;;;;;;;15.60;9.43;;;;;;;;;;5052754;28;20302;-89
2021/03/22 09:02:09;;;;;;;17.13;9.83;;;;;;;;;;5086385;28;20246;-91
2021/03/22 09:04:34;;;;;;;13.07;8.33;;;;;;;;;;5091718;28;20182;-89
2021/03/22 09:07:03;;;;;;;11.43;6.77;;;;;;;;;;5086711;28;20179;-90
2021/03/22 09:09:33;;;;;;;11.50;7.93;;;;;;;;;;5077192;28;20175;-89
2021/03/22 09:12:01;;;;;;;16.43;10.13;;;;;;;;;;5076702;28;20172;-90
2021/03/22 09:14:59;;;;;;;28.77;12.43;;;;;;;;;;5076602;28;20167;-89
2021/03/22 09:17:35;;;;;;;14.00;8.20;;;;;;;;;;5046674;28;20195;-90
2021/03/22 09:20:16;;;;;;;9.27;6.10;;;;;;;;;;5067501;28;20206;-89
2021/03/22 09:22:44;;;;;;;11.83;7.60;;;;;;;;;;5076311;28;20175;-88
2021/03/22 09:25:11;;;;;;;14.20;7.43;;;;;;;;;;5076046;28;20164;-89
2021/03/22 09:27:36;;;;;;;10.50;6.67;;;;;;;;;;5075992;28;20332;-89
2021/03/22 09:30:01;;;;;;;13.10;9.33;;;;;;;;;;5058637;28;20673;-89
2021/03/22 09:32:33;;;;;;;12.20;7.67;;;;;;;;;;5055057;28;20579;-89
2021/03/22 09:34:59;;;;;;;11.00;7.40;;;;;;;;;;5056312;28;20163;-89
2021/03/22 09:37:42;;;;;;;9.07;6.30;;;;;;;;;;5056641;28;20171;-88
2021/03/22 09:40:31;;;;;;;11.27;7.03;;;;;;;;;;5058885;28;20222;-87
2021/03/22 09:43:02;;;;;;;10.90;7.07;;;;;;;;;;5095677;28;20182;-89
2021/03/22 09:45:27;;;;;;;17.40;10.70;;;;;;;;;;5095635;28;20166;-89
2021/03/22 09:48:05;;;;;;;10.30;8.30;;;;;;;;;;5095963;28;20200;-87
2021/03/22 09:50:32;;;;;;;14.53;8.23;;;;;;;;;;5096147;28;20190;-87
2021/03/22 09:52:57;;;;;;;14.20;8.87;;;;;;;;;;5096692;28;20257;-88
2021/03/22 09:55:26;;;;;;;12.80;8.10;;;;;;;;;;5096002;28;20208;-88
2021/03/22 09:57:51;;;;;;;11.60;7.77;;;;;;;;;;5094461;28;20276;-88
2021/03/22 10:00:35;;;;;;;10.57;7.63;;;;;;;;;;5083026;28;20217;-87
2021/03/22 10:03:19;;;;;;;13.17;7.93;;;;;;;;;;5075988;28;20210;-87
2021/03/22 10:05:44;;;;;;;9.90;6.87;;;;;;;;;;5073596;28;20163;-85
2021/03/22 10:08:09;;;;;;;10.77;7.63;;;;;;;;;;5077868;28;20637;-86
2021/03/22 10:10:37;;;;;;;13.40;8.53;;;;;;;;;;5075272;28;20313;-87
2021/03/22 10:13:16;;;;;;;11.83;7.70;;;;;;;;;;5075469;28;20229;-86
2021/03/22 10:15:48;;;;;;;9.67;6.97;;;;;;;;;;5074607;28;20168;-86
2021/03/22 10:18:27;;;;;;;10.97;6.37;;;;;;;;;;5073998;28;20317;-86
2021/03/22 10:21:11;;;;;;;11.03;6.90;;;;;;;;;;5075437;28;20212;-86
2021/03/22 10:23:54;;;;;;;9.30;6.23;;;;;;;;;;5075524;28;20197;-87
2021/03/22 10:26:29;;;;;;;12.03;6.03;;;;;;;;;;5075518;28;20171;-85
2021/03/22 10:29:13;;;;;;;7.63;5.73;;;;;;;;;;5078535;28;20216;-87
2021/03/22 10:31:39;;;;;;;10.57;5.90;;;;;;;;;;5064945;28;20189;-86
2021/03/22 10:34:05;;;;;;;10.43;5.70;;;;;;;;;;5081228;28;20175;-86
2021/03/22 10:36:35;;;;;;;13.57;6.20;;;;;;;;;;5084015;28;20238;-85
2021/03/22 10:39:00;;;;;;;17.03;9.53;;;;;;;;;;5053693;28;20192;-85
2021/03/22 10:41:25;;;;;;;10.03;5.77;;;;;;;;;;5054494;28;20206;-85
2021/03/22 10:43:54;;;;;;;5.30;3.70;;;;;;;;;;5054840;28;20164;-86
2021/03/22 10:46:24;;;;;;;10.77;5.60;;;;;;;;;;5053513;28;20172;-85
2021/03/22 10:49:03;;;;;;;4.90;3.67;;;;;;;;;;5054707;28;20604;-86
2021/03/22 10:51:39;;;;;;;7.67;4.27;;;;;;;;;;5055215;28;20170;-87
2021/03/22 10:54:10;;;;;;;9.67;4.50;;;;;;;;;;5054662;28;20187;-87
2021/03/22 10:56:38;;;;;;;8.00;3.80;;;;;;;;;;5053505;28;20200;-86
2021/03/22 10:59:06;;;;;;;8.13;4.50;;;;;;;;;;5052862;28;20236;-86
2021/03/22 11:01:32;;;;;;;5.60;4.03;;;;;;;;;;5055027;28;20194;-86
2021/03/22 11:04:06;;;;;;;21.57;12.90;;;;;;;;;;5054581;28;20226;-85
2021/03/22 11:06:33;;;;;;;8.57;3.87;;;;;;;;;;5054352;28;20529;-87
2021/03/22 11:08:59;;;;;;;9.20;4.27;;;;;;;;;;5053312;28;20203;-87
2021/03/22 11:11:27;;;;;;;8.30;4.60;;;;;;;;;;5054558;28;20180;-89
2021/03/22 11:13:55;;;;;;;15.10;7.20;;;;;;;;;;5053411;28;20199;-88
2021/03/22 11:16:28;;;;;;;9.57;5.97;;;;;;;;;;5054389;28;20171;-89
2021/03/22 11:18:55;;;;;;;14.27;8.60;;;;;;;;;;5054275;28;20188;-86
2021/03/22 11:21:22;;;;;;;11.07;6.47;;;;;;;;;;5062772;28;20216;-86
2021/03/22 11:23:49;;;;;;;13.77;6.63;;;;;;;;;;5069859;28;20211;-86
2021/03/22 11:26:20;;;;;;;15.57;7.97;;;;;;;;;;5073610;28;20175;-86
2021/03/22 11:28:46;;;;;;;18.10;8.23;;;;;;;;;;5078564;28;20254;-85
2021/03/22 11:31:14;;;;;;;16.07;9.37;;;;;;;;;;5073443;28;20562;-86
2021/03/22 11:33:41;;;;;;;7.73;5.13;;;;;;;;;;5073468;28;20178;-86
2021/03/22 11:36:06;;;;;;;25.40;10.90;;;;;;;;;;5068795;28;20230;-86
2021/03/22 11:38:50;;;;;;;17.00;8.33;;;;;;;;;;5063462;28;20172;-86
2021/03/22 11:41:28;;;;;;;10.37;6.47;;;;;;;;;;5064800;28;20195;-87
2021/03/22 11:44:05;;;;;;;9.23;5.87;;;;;;;;;;5078153;28;20624;-86
2021/03/22 11:46:31;;;;;;;11.30;6.83;;;;;;;;;;5085672;28;20174;-87
2021/03/22 11:48:57;;;;;;;11.10;8.07;;;;;;;;;;5075946;28;20191;-87
2021/03/22 11:51:30;;;;;;;8.30;6.07;;;;;;;;;;5065838;28;20214;-87
2021/03/22 11:54:09;;;;;;;9.43;5.70;;;;;;;;;;5073388;28;20171;-87
2021/03/22 11:56:35;;;;;;;8.53;5.27;;;;;;;;;;5084852;28;20580;-88
2021/03/22 11:59:22;;;;;;;13.47;7.30;;;;;;;;;;5065147;28;20305;-91
2021/03/22 12:02:04;;;;;;;9.03;5.33;;;;;;;;;;5087367;28;20178;-88
2021/03/22 12:04:30;;;;;;;14.43;11.60;;;;;;;;;;5080089;28;20620;-86
2021/03/22 12:06:55;;;;;;;7.73;6.30;;;;;;;;;;5078227;28;20186;-86
2021/03/22 12:09:21;;;;;;;30.83;12.67;;;;;;;;;;5078504;28;20187;-85
2021/03/22 12:11:48;;;;;;;17.97;8.93;;;;;;;;;;5072846;28;20179;-85
2021/03/22 12:14:16;;;;;;;13.63;7.57;;;;;;;;;;5073262;28;20253;-86
2021/03/22 12:16:41;;;;;;;7.80;6.10;;;;;;;;;;5071941;28;20178;-86
2021/03/22 12:19:14;;;;;;;9.00;6.73;;;;;;;;;;5072427;28;20279;-86
2021/03/22 12:21:40;;;;;;;11.43;7.20;;;;;;;;;;5074520;28;20666;-86
2021/03/22 12:24:05;;;;;;;10.33;6.67;;;;;;;;;;5087111;28;20269;-86
2021/03/22 12:26:32;;;;;;;7.13;5.43;;;;;;;;;;5080049;28;20494;-85
2021/03/22 12:28:59;;;;;;;8.03;5.33;;;;;;;;;;5076526;28;20215;-84
2021/03/22 12:31:29;;;;;;;9.50;5.93;;;;;;;;;;5086235;28;20178;-85
2021/03/22 12:33:57;;;;;;;7.73;5.00;;;;;;;;;;5070842;28;20293;-84
2021/03/22 12:36:22;;;;;;;22.87;12.13;;;;;;;;;;5086304;28;20174;-84
2021/03/22 12:38:47;;;;;;;52.87;37.40;;;;;;;;;;5083605;28;20552;-84
2021/03/22 12:41:21;;;;;;;26.37;14.33;;;;;;;;;;5092469;28;20634;-84
2021/03/22 12:43:46;;;;;;;7.37;5.33;;;;;;;;;;5077330;28;20214;-84
2021/03/22 12:46:12;;;;;;;8.73;5.83;;;;;;;;;;5082579;28;20622;-85
2021/03/22 12:48:38;;;;;;;10.73;5.60;;;;;;;;;;5076839;28;20167;-84
2021/03/22 12:51:03;;;;;;;11.77;7.90;;;;;;;;;;5077315;28;20167;-85
2021/03/22 12:53:28;;;;;;;13.57;9.87;;;;;;;;;;5076947;28;20175;-85
2021/03/22 12:55:54;;;;;;;9.70;4.53;;;;;;;;;;5075770;28;20240;-85
2021/03/22 12:58:21;;;;;;;7.23;5.53;;;;;;;;;;5076598;28;20568;-86
2021/03/22 13:00:47;;;;;;;7.60;6.10;;;;;;;;;;5076708;28;20210;-86
2021/03/22 13:03:20;;;;;;;7.70;5.07;;;;;;;;;;5075846;28;20171;-86
2021/03/22 13:05:45;;;;;;;5.80;4.40;;;;;;;;;;5056807;28;20593;-86
2021/03/22 13:08:11;;;;;;;10.93;6.00;;;;;;;;;;5057009;28;20203;-86
2021/03/22 13:10:36;;;;;;;30.53;12.33;;;;;;;;;;5056413;28;20172;-84
2021/03/22 13:13:03;;;;;;;25.67;18.00;;;;;;;;;;5056814;28;20186;-85
2021/03/22 13:15:50;;;;;;;9.93;5.33;;;;;;;;;;5056682;28;20191;-85
2021/03/22 13:18:25;;;;;;;5.50;4.70;;;;;;;;;;5056601;28;20179;-85
2021/03/22 13:20:53;;;;;;;10.73;6.67;;;;;;;;;;5055454;28;20537;-85
2021/03/22 13:23:19;;;;;;;7.00;4.00;;;;;;;;;;5056575;28;20199;-85
2021/03/22 13:25:44;;;;;;;6.93;4.80;;;;;;;;;;5055128;28;20317;-85
2021/03/22 13:28:14;;;;;;;5.43;4.30;;;;;;;;;;5066575;28;20201;-85
2021/03/22 13:30:40;;;;;;;8.10;5.07;;;;;;;;;;5067376;28;20175;-85
2021/03/22 13:33:05;;;;;;;7.90;5.20;;;;;;;;;;5059749;28;20179;-84
2021/03/22 13:35:32;;;;;;;7.43;5.13;;;;;;;;;;5066448;28;20190;-84
2021/03/22 13:37:57;;;;;;;9.40;6.57;;;;;;;;;;5074547;28;20175;-85
2021/03/22 13:40:23;;;;;;;10.73;6.50;;;;;;;;;;5074658;28;20256;-84
2021/03/22 13:42:48;;;;;;;8.37;5.30;;;;;;;;;;5076255;28;20171;-85
2021/03/22 13:45:26;;;;;;;9.77;5.20;;;;;;;;;;5074811;28;20232;-84
2021/03/22 13:47:52;;;;;;;9.20;5.20;;;;;;;;;;5076520;28;20166;-85
2021/03/22 13:50:18;;;;;;;26.90;12.37;;;;;;;;;;5076165;28;20187;-85
2021/03/22 13:52:43;;;;;;;6.10;4.00;;;;;;;;;;5075654;28;20175;-85
2021/03/22 13:55:10;;;;;;;36.53;17.60;;;;;;;;;;5074698;28;20175;-85
2021/03/22 13:57:35;;;;;;;17.50;9.73;;;;;;;;;;5080713;28;20224;-83
2021/03/22 14:00:01;;;;;;;15.90;7.93;;;;;;;;;;5079848;28;20223;-84
2021/03/22 14:02:26;;;;;;;10.10;5.60;;;;;;;;;;5081462;28;20230;-86
2021/03/22 14:04:52;;;;;;;12.07;6.20;;;;;;;;;;5076640;28;20182;-85
2021/03/22 14:07:17;;;;;;;9.23;6.30;;;;;;;;;;5075987;28;20178;-86
2021/03/22 14:09:43;;;;;;;8.97;6.03;;;;;;;;;;5074873;28;20258;-86
2021/03/22 14:12:08;;;;;;;5.23;4.17;;;;;;;;;;5075493;28;20171;-86
2021/03/22 14:14:34;;;;;;;5.37;4.47;;;;;;;;;;5069332;28;20263;-86
2021/03/22 14:16:59;;;;;;;6.03;5.40;;;;;;;;;;5061000;28;20167;-86
2021/03/22 14:19:24;;;;;;;9.20;7.17;;;;;;;;;;5075661;28;20206;-86
2021/03/22 14:21:50;;;;;;;18.83;11.57;;;;;;;;;;5075009;28;20178;-86
2021/03/22 14:24:15;;;;;;;17.80;11.97;;;;;;;;;;5074875;28;20233;-86
2021/03/22 14:26:41;;;;;;;14.30;11.27;;;;;;;;;;5065170;28;20170;-86
2021/03/22 14:29:06;;;;;;;24.60;16.47;;;;;;;;;;5068375;28;20630;-86
2021/03/22 14:31:32;;;;;;;40.10;24.07;;;;;;;;;;5074629;28;20240;-86
2021/03/22 14:33:58;;;;;;;30.60;18.10;;;;;;;;;;5073849;28;20622;-86
2021/03/22 14:36:25;;;;;;;25.47;15.00;;;;;;;;;;5059177;28;20186;-86
2021/03/22 14:38:51;;;;;;;23.20;14.97;;;;;;;;;;5066903;28;20210;-86